createdAt,value
2018-11-11T00:03:16.135Z,98.80
2018-11-11T00:13:20.565Z,98.80
2018-11-11T00:23:24.834Z,98.20
2018-11-11T00:33:29.086Z,98.20
2018-11-11T00:43:33.334Z,98.00
2018-11-11T00:53:37.582Z,98.00
2018-11-11T01:03:41.879Z,98.30
2018-11-11T01:13:46.243Z,98.10
2018-11-11T01:23:50.526Z,97.50
2018-11-11T01:33:54.730Z,97.70
2018-11-11T01:43:59.003Z,97.90
2018-11-11T01:54:03.287Z,97.90
2018-11-11T02:04:07.634Z,98.10
2018-11-11T02:14:11.942Z,97.80
2018-11-11T02:24:16.392Z,98.40
2018-11-11T02:34:20.831Z,97.90
2018-11-11T02:44:25.134Z,98.60
2018-11-11T02:54:29.549Z,98.30
2018-11-11T03:04:34.003Z,98.60
2018-11-11T03:14:38.242Z,98.30
2018-11-11T03:24:42.495Z,98.60
2018-11-11T03:34:46.754Z,99.00
2018-11-11T03:44:51.026Z,98.90
2018-11-11T03:54:55.286Z,99.00
2018-11-11T04:04:59.546Z,98.80
2018-11-11T04:15:03.900Z,98.60
2018-11-11T04:25:08.380Z,98.90
2018-11-11T04:35:13.035Z,98.30
2018-11-11T04:45:17.356Z,99.00
2018-11-11T04:55:21.632Z,98.70
2018-11-11T05:05:25.950Z,98.60
2018-11-11T05:15:30.377Z,98.50
2018-11-11T05:25:34.738Z,99.30
2018-11-11T05:35:39.062Z,99.30
2018-11-11T05:45:43.272Z,98.80
2018-11-11T05:55:47.574Z,98.70
2018-11-11T06:05:51.933Z,98.80
2018-11-11T06:15:56.188Z,98.50
2018-11-11T06:26:00.461Z,98.80
2018-11-11T06:36:04.958Z,98.80
2018-11-11T06:46:09.230Z,99.30
2018-11-11T06:56:13.531Z,98.70
2018-11-11T07:06:17.830Z,98.90
2018-11-11T07:16:22.063Z,98.70
2018-11-11T07:26:26.318Z,98.80
2018-11-11T07:36:30.560Z,99.00
2018-11-11T07:46:34.930Z,98.30
2018-11-11T07:56:39.302Z,98.30
2018-11-11T08:06:43.607Z,98.10
2018-11-11T08:16:47.961Z,98.00
2018-11-11T08:26:52.547Z,98.00
2018-11-11T08:36:56.898Z,97.50
2018-11-11T08:47:01.190Z,97.50
2018-11-11T08:57:05.679Z,97.20
2018-11-11T09:07:10.026Z,97.50
2018-11-11T09:17:14.345Z,97.20
2018-11-11T09:27:18.593Z,97.20
2018-11-11T09:37:22.890Z,97.10
2018-11-11T09:47:27.238Z,96.50
2018-11-11T09:57:31.547Z,96.20
2018-11-11T10:07:44.306Z,96.80
2018-11-11T10:17:54.430Z,96.10
2018-11-11T10:28:06.087Z,96.30
2018-11-11T10:38:15.693Z,96.30
2018-11-11T10:48:23.458Z,96.00
2018-11-11T10:58:28.358Z,95.70
2018-11-11T11:08:32.903Z,95.40
2018-11-11T11:18:37.219Z,95.30
2018-11-11T11:28:41.619Z,95.70
2018-11-11T11:38:45.870Z,95.70
2018-11-11T11:48:50.242Z,95.70
2018-11-11T11:58:54.613Z,95.70
2018-11-11T12:08:59.063Z,95.30
2018-11-11T12:19:03.359Z,95.10
2018-11-11T12:29:07.794Z,95.30
2018-11-11T12:39:13.181Z,95.20
2018-11-11T12:49:17.762Z,95.10
2018-11-11T12:59:22.082Z,95.10
2018-11-11T13:09:26.461Z,95.10
2018-11-11T13:19:30.857Z,95.50
2018-11-11T13:29:35.111Z,95.40
2018-11-11T13:39:39.412Z,96.10
2018-11-11T13:49:43.714Z,95.80
2018-11-11T13:59:48.054Z,96.50
2018-11-11T14:09:52.405Z,96.90
2018-11-11T14:19:56.734Z,96.20
2018-11-11T14:30:01.171Z,97.00
2018-11-11T14:40:15.826Z,97.40
2018-11-11T14:50:20.746Z,97.10
2018-11-11T15:00:26.424Z,97.10
2018-11-11T15:10:30.880Z,97.70
2018-11-11T15:20:35.695Z,97.50
2018-11-11T15:30:40.057Z,97.40
2018-11-11T15:40:44.338Z,97.40
2018-11-11T15:50:48.630Z,97.80
2018-11-11T16:00:53.073Z,97.70
2018-11-11T16:10:57.422Z,98.30
2018-11-11T16:21:01.753Z,98.20
2018-11-11T16:31:06.111Z,97.80
2018-11-11T16:41:10.658Z,97.50
2018-11-11T16:51:14.765Z,97.70
2018-11-11T17:01:19.340Z,97.70
2018-11-11T17:11:23.662Z,98.00
2018-11-11T17:21:27.998Z,98.20
2018-11-11T17:31:32.273Z,98.70
2018-11-11T17:41:36.602Z,98.50
2018-11-11T17:51:41.155Z,98.50
2018-11-11T18:01:45.462Z,98.60
2018-11-11T18:11:49.758Z,98.50
2018-11-11T18:21:54.225Z,98.40
2018-11-11T18:31:58.530Z,98.50
2018-11-11T18:42:02.819Z,98.50
2018-11-11T18:52:07.126Z,98.30
2018-11-11T19:02:11.426Z,98.20
2018-11-11T19:12:15.717Z,98.00
2018-11-11T19:22:20.070Z,98.20
2018-11-11T19:32:24.362Z,98.70
2018-11-11T19:42:28.726Z,98.90
2018-11-11T19:52:32.999Z,98.90
2018-11-11T20:02:37.386Z,99.00
2018-11-11T20:12:41.661Z,99.20
2018-11-11T20:22:46.086Z,99.30
2018-11-11T20:32:50.411Z,99.60
2018-11-11T20:42:55.216Z,99.70
2018-11-11T20:53:00.813Z,99.90
2018-11-11T21:03:05.462Z,99.90
2018-11-11T21:13:09.858Z,99.90
2018-11-11T21:23:14.220Z,99.90
2018-11-11T21:33:18.482Z,99.90
2018-11-11T21:43:22.726Z,99.90
2018-11-11T21:53:29.842Z,99.90
2018-11-11T22:03:34.174Z,99.90
2018-11-11T22:13:38.982Z,99.90
2018-11-11T22:23:43.224Z,99.90
2018-11-11T22:33:47.479Z,99.90
2018-11-11T22:43:51.777Z,99.90
2018-11-11T22:53:56.248Z,99.90
2018-11-11T23:04:00.510Z,99.90
2018-11-11T23:14:04.862Z,99.90
2018-11-11T23:24:09.168Z,99.90
2018-11-11T23:34:13.897Z,99.90
2018-11-11T23:44:19.081Z,99.90
2018-11-11T23:54:23.562Z,99.90
